India Forums Logo

Computers, Science, Technology

India Forums > Forum Index > Computers, Science, Technology
Place to talk about computers, the internet, and any science and tech related stuff.
<< | 1 | 2 | 3 | 4 | 5 | 6 | 7 | 8 | 9 | 10 | 11 | 12 | 13 | 14 | 15 | 16 | ... >>
TIDTopic SubjectStart DateLast Entry
1210933The Global Technology7/9/2009 8:38:36 AM7/9/2009 1:55:25 PM
1217979Nokia N96 $290, Apple iphone 16GB 3G $3707/20/2009 12:28:16 PM7/20/2009 12:28:16 PM
1222201PC2PHONE,MOBILE DIALER,LINKSYS,DIRECT ROUTES AVAI7/27/2009 2:13:32 PM7/27/2009 2:13:32 PM
1222518Acer has come up with amazing offer for students7/28/2009 5:42:59 AM7/28/2009 5:42:59 AM
1223155Be the First Let your dreams come true7/29/2009 4:11:26 AM7/29/2009 4:11:26 AM
1225961Is there any Entertainment app for iPhone ?8/3/2009 12:29:44 AM8/13/2009 8:04:23 PM
1227384how to remove Inprivate from statusbar????8/5/2009 4:13:09 AM8/5/2009 4:13:09 AM
1231178Recharge your phone without electricity..8/11/2009 5:28:10 PM10/17/2009 4:44:15 PM
1231714dvd menu8/12/2009 12:19:34 PM8/16/2009 2:47:39 PM
1231767Nokia phones to get Microsoft Word8/12/2009 2:02:39 PM8/12/2009 2:02:39 PM
1237045Sony’s PLAYSTATION 3 Slim cuts prices in India8/20/2009 9:29:39 PM8/30/2009 6:44:24 AM
1237935join today8/22/2009 7:35:34 AM8/22/2009 7:35:34 AM
1242127turning off camera sound8/28/2009 10:24:10 PM10/14/2009 11:45:42 AM
1242716Believe it or not--read this8/30/2009 6:03:50 AM10/24/2009 8:38:07 PM
1243807Nokia-to launch mobile banking9/1/2009 7:24:53 AM9/1/2009 7:24:53 AM
1245175Light-emitting diodes brighten new HDTVs9/3/2009 5:17:02 AM9/3/2009 5:17:02 AM
1252085Free design website9/14/2009 4:18:05 PM9/25/2009 4:58:22 AM
1252086Joomla is the best !!!9/14/2009 4:22:33 PM9/14/2009 4:22:33 PM
1252120Laptop Help :D9/14/2009 6:08:43 PM10/17/2009 2:25:16 PM
1255228Touchscreen with less than 50$.it worked for me9/19/2009 6:21:01 PM9/19/2009 6:21:01 PM
1257174Funny Application on Facebook....9/23/2009 7:21:40 AM9/23/2009 7:21:40 AM
1262735iPhone App Developers Required10/1/2009 6:51:51 PM10/1/2009 6:51:51 PM
1265780Help Needed quick!10/6/2009 5:41:28 PM11/7/2009 6:33:34 PM
1266516Did you know???????????? :O10/7/2009 4:53:07 PM11/7/2009 5:04:17 PM
1266644Robotix 2010 at IIT, Kharagpur!10/8/2009 1:39:13 AM11/2/2009 7:51:44 PM
1269827Listen free music on-line without any limitations.10/13/2009 6:14:13 AM11/2/2009 7:45:35 PM
1272699Ipod - generation 5 probs!10/17/2009 1:04:53 PM10/27/2009 12:48:15 AM
1276213tips to search better in Google...10/23/2009 1:22:27 PM11/1/2009 6:35:26 AM
1282972Review my webiste11/4/2009 9:49:19 AM12/4/2009 9:39:48 PM
1285315Youtube fun!! Warping!11/8/2009 7:06:18 PM11/8/2009 7:06:18 PM
128532110 Youtube URL tricks11/8/2009 7:34:59 PM11/8/2009 7:34:59 PM
1285354Need Advice on Nokia 5800 Xpress Music11/8/2009 10:26:37 PM5/2/2010 6:39:38 PM
1287675Help eIndia in online game!11/12/2009 3:29:25 PM11/12/2009 3:29:25 PM
1288562Go google11/14/2009 2:17:30 AM11/14/2009 2:17:30 AM
1288780Folder Lock Keep things secrets11/14/2009 10:59:45 AM11/27/2009 12:39:47 AM
1289172Found Water In the moon by new Technology11/15/2009 10:27:33 AM11/15/2009 12:09:31 PM
12891771900 Free Web Templates !!11/15/2009 10:41:21 AM11/15/2009 10:41:21 AM
1290594plzzzzzz help11/17/2009 3:32:54 PM11/17/2009 3:32:54 PM
1291046fastest computer in the world11/18/2009 9:59:23 AM12/5/2009 5:18:14 AM
1291048fastest computer in the world11/18/2009 10:01:25 AM11/18/2009 10:01:25 AM
1293328laptop help11/22/2009 7:51:20 AM11/23/2009 4:39:49 PM
1294159Microsoft Office 2010 beta version! Your review!11/23/2009 10:06:00 PM12/12/2009 9:44:17 AM
1297054Google11/28/2009 7:55:21 PM12/1/2009 10:57:04 AM
1299721need instant help on this topic....12/3/2009 2:33:44 AM12/8/2009 8:33:49 PM
1301399Samsung F480V Tocco12/5/2009 2:27:40 PM12/5/2009 2:27:40 PM
13033503D FPS Game based on the 26/11 terror attacks12/9/2009 7:46:35 AM12/9/2009 7:46:35 AM
1304834help-hp mini laptop12/11/2009 10:05:09 AM12/25/2009 1:00:15 PM
1307117Google is going to launch its new phone12/16/2009 1:36:41 AM1/29/2010 8:33:12 AM
1309179seeking an honest suggestion12/20/2009 12:09:50 AM1/4/2010 6:35:41 AM
1313230Nokia 5200 Mic/Speaker problem12/27/2009 3:39:14 AM12/31/2009 6:12:48 PM
1314554HP G61-110sa laptop - to buy or not to buy?12/29/2009 4:36:53 PM1/3/2010 8:03:43 PM
1323289Facebook Partners With McAfee to Chase Out the Rat1/15/2010 4:29:51 AM1/15/2010 4:29:51 AM
1323871Request to take a survey for research1/16/2010 11:22:51 AM1/16/2010 11:22:51 AM
1324255Dialling Code1/17/2010 2:41:33 PM1/21/2010 8:08:46 PM
1330935Some Tips to stay within Gmail space allocation1/30/2010 12:30:41 AM5/2/2010 11:31:28 PM
1334228Cheapest Wind Turbine2/4/2010 11:26:03 PM2/4/2010 11:26:03 PM
1334276* Google or Yahoo? *2/5/2010 1:18:59 AM8/11/2010 12:42:54 PM
1335539help pc2mobile call2/7/2010 9:08:26 AM4/15/2010 10:12:25 AM
1339348One tough2/13/2010 3:22:51 PM2/27/2010 11:41:34 AM
1348531wat wil u name ur computr?3/1/2010 9:31:37 AM4/10/2010 4:01:43 PM
1349099Which company do you buy phones from ?3/2/2010 7:16:35 AM3/7/2010 11:23:12 AM
1353415*tere lights baz gaye mere capslock pe* FF3/9/2010 12:05:33 AM5/23/2010 11:14:41 AM
1354141Download and Convert online *.flv video to 3GP on3/9/2010 11:54:59 PM4/15/2010 2:22:38 AM
1357095nokia n953/14/2010 1:27:38 PM3/28/2010 11:48:07 AM
1360179Rip DVD to all popular videos on Mac3/18/2010 9:36:06 PM3/18/2010 9:36:06 PM
1362103Corrupt file repair3/22/2010 3:32:50 AM3/29/2010 6:27:09 AM
1363118Memory card is blocked3/23/2010 11:06:24 AM3/29/2010 6:44:11 AM
1363978putting internet on your phone3/24/2010 12:20:17 PM4/1/2010 4:02:44 PM
1364289How to convert MKV to AVI, MOV, FLV, PS3 and MP4 o3/24/2010 11:58:43 PM8/2/2010 9:22:17 AM
1366655Hi all3/28/2010 11:11:10 PM3/28/2010 11:11:10 PM
1377889Hello4/15/2010 2:32:12 AM4/22/2010 9:41:46 AM
1378121help- messenger4/15/2010 9:58:08 AM4/24/2010 10:40:51 AM
1383637Kool Centre4/24/2010 5:40:07 AM4/24/2010 5:40:07 AM
1384266How to convert MKV to iPad on Mac4/25/2010 9:06:44 PM7/7/2010 3:45:23 AM
1384596downloading DS GAMES illegally :P4/26/2010 11:11:49 AM4/26/2010 11:11:49 AM
<< | 1 | 2 | 3 | 4 | 5 | 6 | 7 | 8 | 9 | 10 | 11 | 12 | 13 | 14 | 15 | 16 | ... >>